Terminal Aerodrome Forecast
Issued by NWS

Home | Current Version | Previous Version | Text Only | Print | Product List | Glossary On
Versions: 1 2 3 4 5 6 7 8 9 10 11 12 13 14 15 16 17 18 19 20
000
FTUS43 KDLH 291700
TAFHIB
TAF
KHIB 291740Z 2918/3018 32021G28KT P6SM -RA BKN015 OVC028
     FM292100 32020G27KT P6SM BKN023 OVC028
     FM300000 30015G24KT P6SM SCT028 BKN050
     FM300400 31007KT P6SM SKC
     FM301200 25005KT P6SM SCT100 BKN250=

USA.gov is the U.S. government's official web portal to all federal, state and local government web resources and services.